sensor_id;sensor_type;location;lat;lon;timestamp;pressure;altitude;pressure_sealevel;temperature;humidity
55759;BME280;41678;52.126;20.664;2023-06-19T00:01:43;100263.16;;;14.68;73.92
55759;BME280;41678;52.126;20.664;2023-06-19T00:07:04;100273.00;;;14.64;73.45
55759;BME280;41678;52.126;20.664;2023-06-19T00:12:24;100268.75;;;14.58;73.36
55759;BME280;41678;52.126;20.664;2023-06-19T00:17:43;100270.59;;;14.55;73.48
55759;BME280;41678;52.126;20.664;2023-06-19T00:23:02;100269.66;;;14.57;73.47
55759;BME280;41678;52.126;20.664;2023-06-19T00:28:22;100272.59;;;14.47;73.96
55759;BME280;41678;52.126;20.664;2023-06-19T00:33:43;100285.13;;;14.40;73.97
55759;BME280;41678;52.126;20.664;2023-06-19T00:39:02;100279.19;;;14.31;74.64
55759;BME280;41678;52.126;20.664;2023-06-19T00:44:22;100276.66;;;14.27;74.31
55759;BME280;41678;52.126;20.664;2023-06-19T00:49:42;100273.28;;;14.22;74.23
55759;BME280;41678;52.126;20.664;2023-06-19T00:55:03;100276.91;;;14.17;74.00
55759;BME280;41678;52.126;20.664;2023-06-19T01:00:23;100276.25;;;14.09;74.72
55759;BME280;41678;52.126;20.664;2023-06-19T01:05:47;100271.16;;;14.01;75.15
55759;BME280;41678;52.126;20.664;2023-06-19T01:11:09;100265.03;;;13.99;74.44
55759;BME280;41678;52.126;20.664;2023-06-19T01:16:31;100266.09;;;13.92;74.47
55759;BME280;41678;52.126;20.664;2023-06-19T01:21:52;100266.19;;;13.87;74.05
55759;BME280;41678;52.126;20.664;2023-06-19T01:27:11;100269.91;;;13.82;75.32
55759;BME280;41678;52.126;20.664;2023-06-19T01:38:04;100267.09;;;13.86;73.98
55759;BME280;41678;52.126;20.664;2023-06-19T01:43:27;100260.41;;;13.73;74.49
55759;BME280;41678;52.126;20.664;2023-06-19T01:48:48;100264.81;;;13.72;74.38
55759;BME280;41678;52.126;20.664;2023-06-19T01:54:08;100256.06;;;13.70;74.36
55759;BME280;41678;52.126;20.664;2023-06-19T01:59:28;100268.53;;;13.65;74.03
55759;BME280;41678;52.126;20.664;2023-06-19T02:04:47;100269.59;;;13.58;74.53
55759;BME280;41678;52.126;20.664;2023-06-19T02:10:07;100262.59;;;13.55;74.29
55759;BME280;41678;52.126;20.664;2023-06-19T02:15:28;100263.63;;;13.50;74.81
55759;BME280;41678;52.126;20.664;2023-06-19T02:20:47;100265.47;;;13.46;75.02
55759;BME280;41678;52.126;20.664;2023-06-19T02:26:08;100269.09;;;13.40;75.19
55759;BME280;41678;52.126;20.664;2023-06-19T02:31:28;100268.28;;;13.37;74.81
55759;BME280;41678;52.126;20.664;2023-06-19T02:36:47;100263.06;;;13.35;74.89
55759;BME280;41678;52.126;20.664;2023-06-19T02:42:07;100269.28;;;13.31;74.53
55759;BME280;41678;52.126;20.664;2023-06-19T02:47:26;100267.63;;;13.27;75.28
55759;BME280;41678;52.126;20.664;2023-06-19T02:52:46;100269.47;;;13.23;74.76
55759;BME280;41678;52.126;20.664;2023-06-19T02:58:05;100267.78;;;13.21;74.85
55759;BME280;41678;52.126;20.664;2023-06-19T03:03:25;100264.28;;;13.18;75.00
55759;BME280;41678;52.126;20.664;2023-06-19T03:08:44;100270.47;;;13.17;74.55
55759;BME280;41678;52.126;20.664;2023-06-19T03:14:04;100274.03;;;13.16;75.11
55759;BME280;41678;52.126;20.664;2023-06-19T03:19:27;100267.06;;;13.12;74.58
55759;BME280;41678;52.126;20.664;2023-06-19T03:24:46;100280.22;;;13.15;75.18
55759;BME280;41678;52.126;20.664;2023-06-19T03:30:13;100274.00;;;13.18;74.83
55759;BME280;41678;52.126;20.664;2023-06-19T03:35:34;100277.56;;;13.17;74.74
55759;BME280;41678;52.126;20.664;2023-06-19T03:40:54;100274.91;;;13.17;74.73
55759;BME280;41678;52.126;20.664;2023-06-19T03:46:14;100275.66;;;13.22;74.49
55759;BME280;41678;52.126;20.664;2023-06-19T03:51:34;100283.50;;;13.27;74.95
55759;BME280;41678;52.126;20.664;2023-06-19T03:56:54;100279.88;;;13.31;74.61
55759;BME280;41678;52.126;20.664;2023-06-19T04:02:15;100277.16;;;13.34;74.17
55759;BME280;41678;52.126;20.664;2023-06-19T04:07:36;100285.81;;;13.41;75.26
55759;BME280;41678;52.126;20.664;2023-06-19T04:12:56;100274.31;;;13.45;74.66
55759;BME280;41678;52.126;20.664;2023-06-19T04:18:16;100280.19;;;13.56;74.58
55759;BME280;41678;52.126;20.664;2023-06-19T04:23:35;100278.31;;;13.62;74.34
55759;BME280;41678;52.126;20.664;2023-06-19T04:28:56;100291.28;;;13.72;74.92
55759;BME280;41678;52.126;20.664;2023-06-19T04:34:16;100288.41;;;13.82;74.50
55759;BME280;41678;52.126;20.664;2023-06-19T04:39:40;100287.25;;;13.92;74.81
55759;BME280;41678;52.126;20.664;2023-06-19T04:44:59;100288.75;;;14.04;75.08
55759;BME280;41678;52.126;20.664;2023-06-19T04:50:20;100284.06;;;14.14;75.02
55759;BME280;41678;52.126;20.664;2023-06-19T04:55:40;100289.06;;;14.25;74.94
55759;BME280;41678;52.126;20.664;2023-06-19T05:01:00;100301.94;;;14.39;75.36
55759;BME280;41678;52.126;20.664;2023-06-19T05:06:20;100303.25;;;14.55;75.31
55759;BME280;41678;52.126;20.664;2023-06-19T05:11:40;100300.94;;;14.76;75.23
55759;BME280;41678;52.126;20.664;2023-06-19T05:16:59;100311.19;;;14.89;75.17
55759;BME280;41678;52.126;20.664;2023-06-19T05:22:19;100319.63;;;15.03;75.62
55759;BME280;41678;52.126;20.664;2023-06-19T05:27:41;100324.16;;;15.28;76.25
55759;BME280;41678;52.126;20.664;2023-06-19T05:33:00;100326.41;;;15.42;76.43
55759;BME280;41678;52.126;20.664;2023-06-19T05:38:20;100332.84;;;15.63;76.78
55759;BME280;41678;52.126;20.664;2023-06-19T05:43:40;100332.22;;;15.82;77.14
55759;BME280;41678;52.126;20.664;2023-06-19T05:48:59;100338.75;;;16.00;77.21
55759;BME280;41678;52.126;20.664;2023-06-19T05:54:19;100336.19;;;16.24;78.34
55759;BME280;41678;52.126;20.664;2023-06-19T05:59:39;100336.41;;;16.43;77.94
55759;BME280;41678;52.126;20.664;2023-06-19T06:04:58;100355.81;;;16.70;77.88
55759;BME280;41678;52.126;20.664;2023-06-19T06:10:22;100350.94;;;16.83;77.72
55759;BME280;41678;52.126;20.664;2023-06-19T06:15:42;100358.25;;;17.02;77.83
55759;BME280;41678;52.126;20.664;2023-06-19T06:21:02;100354.91;;;17.21;77.77
55759;BME280;41678;52.126;20.664;2023-06-19T06:26:22;100357.66;;;17.41;77.93
55759;BME280;41678;52.126;20.664;2023-06-19T06:31:41;100360.63;;;17.56;77.39
55759;BME280;41678;52.126;20.664;2023-06-19T06:37:01;100363.47;;;17.74;77.60
55759;BME280;41678;52.126;20.664;2023-06-19T06:42:21;100368.09;;;17.92;77.36
55759;BME280;41678;52.126;20.664;2023-06-19T06:47:40;100362.88;;;18.11;77.35
55759;BME280;41678;52.126;20.664;2023-06-19T06:53:00;100364.69;;;18.32;77.27
55759;BME280;41678;52.126;20.664;2023-06-19T06:58:20;100361.78;;;18.59;76.50
55759;BME280;41678;52.126;20.664;2023-06-19T07:03:39;100361.25;;;18.71;75.83
55759;BME280;41678;52.126;20.664;2023-06-19T07:08:59;100368.50;;;18.88;76.02
55759;BME280;41678;52.126;20.664;2023-06-19T07:14:19;100355.97;;;19.09;75.91
55759;BME280;41678;52.126;20.664;2023-06-19T07:19:38;100354.38;;;19.26;75.58
55759;BME280;41678;52.126;20.664;2023-06-19T07:24:58;100356.78;;;19.50;75.41
55759;BME280;41678;52.126;20.664;2023-06-19T07:30:17;100359.22;;;19.74;75.30
55759;BME280;41678;52.126;20.664;2023-06-19T07:35:37;100363.59;;;19.94;74.99
55759;BME280;41678;52.126;20.664;2023-06-19T07:40:57;100359.81;;;20.17;75.10
55759;BME280;41678;52.126;20.664;2023-06-19T07:46:16;100356.34;;;20.33;74.69
55759;BME280;41678;52.126;20.664;2023-06-19T07:51:36;100364.97;;;20.56;74.20
55759;BME280;41678;52.126;20.664;2023-06-19T07:56:56;100362.25;;;20.73;73.92
55759;BME280;41678;52.126;20.664;2023-06-19T08:02:16;100372.19;;;20.89;73.16
55759;BME280;41678;52.126;20.664;2023-06-19T08:07:36;100369.63;;;21.03;73.30
55759;BME280;41678;52.126;20.664;2023-06-19T08:12:55;100357.31;;;21.17;72.62
55759;BME280;41678;52.126;20.664;2023-06-19T08:18:15;100360.16;;;21.30;72.56
55759;BME280;41678;52.126;20.664;2023-06-19T08:23:34;100372.78;;;21.44;71.73
55759;BME280;41678;52.126;20.664;2023-06-19T08:28:54;100375.75;;;21.55;70.36
55759;BME280;41678;52.126;20.664;2023-06-19T08:34:14;100370.72;;;21.65;70.36
55759;BME280;41678;52.126;20.664;2023-06-19T08:39:34;100373.59;;;21.78;70.50
55759;BME280;41678;52.126;20.664;2023-06-19T08:44:57;100379.22;;;21.73;70.73
55759;BME280;41678;52.126;20.664;2023-06-19T08:50:17;100377.81;;;21.82;70.02
55759;BME280;41678;52.126;20.664;2023-06-19T08:55:37;100376.25;;;21.94;70.16
55759;BME280;41678;52.126;20.664;2023-06-19T09:00:58;100377.53;;;22.03;68.86
55759;BME280;41678;52.126;20.664;2023-06-19T09:06:18;100368.78;;;22.15;69.56
55759;BME280;41678;52.126;20.664;2023-06-19T09:11:37;100361.50;;;22.17;69.96
55759;BME280;41678;52.126;20.664;2023-06-19T09:17:04;100369.75;;;22.29;69.59
55759;BME280;41678;52.126;20.664;2023-06-19T09:22:24;100362.13;;;22.37;68.92
55759;BME280;41678;52.126;20.664;2023-06-19T09:27:44;100373.13;;;22.48;68.51
55759;BME280;41678;52.126;20.664;2023-06-19T09:33:07;100371.88;;;22.54;67.55
55759;BME280;41678;52.126;20.664;2023-06-19T09:38:28;100373.03;;;22.64;67.68
55759;BME280;41678;52.126;20.664;2023-06-19T09:43:49;100364.63;;;22.71;66.35
55759;BME280;41678;52.126;20.664;2023-06-19T09:49:12;100363.19;;;22.80;67.38
55759;BME280;41678;52.126;20.664;2023-06-19T09:54:32;100360.72;;;22.91;66.42
55759;BME280;41678;52.126;20.664;2023-06-19T09:59:54;100362.03;;;22.98;66.43
55759;BME280;41678;52.126;20.664;2023-06-19T10:05:15;100363.41;;;23.05;66.37
55759;BME280;41678;52.126;20.664;2023-06-19T10:10:35;100370.09;;;23.13;65.32
55759;BME280;41678;52.126;20.664;2023-06-19T10:15:55;100367.97;;;23.18;64.81
55759;BME280;41678;52.126;20.664;2023-06-19T10:21:19;100357.81;;;23.23;64.30
55759;BME280;41678;52.126;20.664;2023-06-19T10:26:39;100351.47;;;23.24;63.94
55759;BME280;41678;52.126;20.664;2023-06-19T10:31:59;100352.44;;;23.23;63.08
55759;BME280;41678;52.126;20.664;2023-06-19T10:37:31;100354.25;;;23.23;63.19
55759;BME280;41678;52.126;20.664;2023-06-19T10:42:51;100350.81;;;23.35;63.97
55759;BME280;41678;52.126;20.664;2023-06-19T10:48:11;100350.53;;;23.40;62.28
55759;BME280;41678;52.126;20.664;2023-06-19T10:53:32;100348.38;;;23.45;63.22
55759;BME280;41678;52.126;20.664;2023-06-19T11:04:21;100347.38;;;23.60;63.47
55759;BME280;41678;52.126;20.664;2023-06-19T11:09:43;100355.69;;;23.70;62.34
55759;BME280;41678;52.126;20.664;2023-06-19T11:15:04;100343.03;;;23.72;62.30
55759;BME280;41678;52.126;20.664;2023-06-19T11:20:25;100339.50;;;23.72;62.21
55759;BME280;41678;52.126;20.664;2023-06-19T11:25:45;100339.94;;;23.79;62.51
55759;BME280;41678;52.126;20.664;2023-06-19T11:31:05;100327.25;;;23.81;60.26
55759;BME280;41678;52.126;20.664;2023-06-19T11:36:24;100327.94;;;23.84;60.87
55759;BME280;41678;52.126;20.664;2023-06-19T11:41:44;100317.72;;;23.89;61.77
55759;BME280;41678;52.126;20.664;2023-06-19T11:47:04;100316.13;;;24.00;60.30
55759;BME280;41678;52.126;20.664;2023-06-19T11:52:24;100315.38;;;23.98;61.50
55759;BME280;41678;52.126;20.664;2023-06-19T11:57:45;100306.03;;;24.03;61.32
55759;BME280;41678;52.126;20.664;2023-06-19T12:03:16;100308.56;;;24.07;59.13
55759;BME280;41678;52.126;20.664;2023-06-19T12:08:36;100312.09;;;24.07;59.22
55759;BME280;41678;52.126;20.664;2023-06-19T12:13:57;100314.47;;;24.12;59.11
55759;BME280;41678;52.126;20.664;2023-06-19T12:19:20;100305.19;;;24.03;59.16
55759;BME280;41678;52.126;20.664;2023-06-19T12:24:40;100307.94;;;24.01;59.77
55759;BME280;41678;52.126;20.664;2023-06-19T12:30:00;100302.00;;;24.11;59.13
55759;BME280;41678;52.126;20.664;2023-06-19T12:35:20;100295.63;;;24.12;59.65
55759;BME280;41678;52.126;20.664;2023-06-19T12:40:42;100302.66;;;24.14;58.94
55759;BME280;41678;52.126;20.664;2023-06-19T12:46:02;100293.38;;;24.18;57.43
55759;BME280;41678;52.126;20.664;2023-06-19T12:51:21;100287.03;;;24.19;57.91
55759;BME280;41678;52.126;20.664;2023-06-19T12:56:41;100276.38;;;24.18;58.57
55759;BME280;41678;52.126;20.664;2023-06-19T13:02:00;100280.47;;;24.24;57.39
55759;BME280;41678;52.126;20.664;2023-06-19T13:07:21;100280.47;;;24.24;57.52
55759;BME280;41678;52.126;20.664;2023-06-19T13:12:40;100273.38;;;24.23;57.39
55759;BME280;41678;52.126;20.664;2023-06-19T13:18:00;100275.09;;;24.24;56.04
55759;BME280;41678;52.126;20.664;2023-06-19T13:23:23;100263.50;;;24.23;56.35
55759;BME280;41678;52.126;20.664;2023-06-19T13:28:43;100258.94;;;24.24;56.96
55759;BME280;41678;52.126;20.664;2023-06-19T13:34:02;100251.22;;;24.32;55.26
55759;BME280;41678;52.126;20.664;2023-06-19T13:39:22;100250.34;;;24.31;56.19
55759;BME280;41678;52.126;20.664;2023-06-19T13:44:41;100262.81;;;24.32;56.50
55759;BME280;41678;52.126;20.664;2023-06-19T13:50:01;100253.59;;;24.37;55.96
55759;BME280;41678;52.126;20.664;2023-06-19T13:55:21;100254.44;;;24.37;56.75
55759;BME280;41678;52.126;20.664;2023-06-19T14:00:42;100249.06;;;24.37;56.69
55759;BME280;41678;52.126;20.664;2023-06-19T14:06:01;100253.25;;;24.41;56.64
55759;BME280;41678;52.126;20.664;2023-06-19T14:11:23;100252.31;;;24.42;57.51
55759;BME280;41678;52.126;20.664;2023-06-19T14:16:54;100257.69;;;24.42;57.24
55759;BME280;41678;52.126;20.664;2023-06-19T14:22:14;100245.97;;;24.43;57.29
55759;BME280;41678;52.126;20.664;2023-06-19T14:27:34;100252.84;;;24.47;57.44
55759;BME280;41678;52.126;20.664;2023-06-19T14:32:53;100246.47;;;24.48;57.77
55759;BME280;41678;52.126;20.664;2023-06-19T14:38:13;100237.88;;;24.43;57.40
55759;BME280;41678;52.126;20.664;2023-06-19T14:43:33;100237.75;;;24.45;56.92
55759;BME280;41678;52.126;20.664;2023-06-19T14:48:54;100235.94;;;24.45;57.29
55759;BME280;41678;52.126;20.664;2023-06-19T14:54:14;100240.56;;;24.43;57.51
55759;BME280;41678;52.126;20.664;2023-06-19T14:59:36;100236.69;;;24.47;57.80
55759;BME280;41678;52.126;20.664;2023-06-19T15:04:56;100237.66;;;24.46;57.37
55759;BME280;41678;52.126;20.664;2023-06-19T15:10:15;100239.38;;;24.47;57.27
55759;BME280;41678;52.126;20.664;2023-06-19T15:15:35;100233.13;;;24.47;57.23
55759;BME280;41678;52.126;20.664;2023-06-19T15:20:54;100226.56;;;24.51;57.53
55759;BME280;41678;52.126;20.664;2023-06-19T15:26:14;100233.53;;;24.54;57.36
55759;BME280;41678;52.126;20.664;2023-06-19T15:31:34;100228.38;;;24.51;56.86
55759;BME280;41678;52.126;20.664;2023-06-19T15:36:54;100219.34;;;24.52;57.99
55759;BME280;41678;52.126;20.664;2023-06-19T15:42:14;100223.22;;;24.47;57.64
55759;BME280;41678;52.126;20.664;2023-06-19T15:47:34;100237.34;;;24.51;57.96
55759;BME280;41678;52.126;20.664;2023-06-19T15:52:54;100230.44;;;24.60;57.34
55759;BME280;41678;52.126;20.664;2023-06-19T15:58:13;100234.53;;;24.53;57.45
55759;BME280;41678;52.126;20.664;2023-06-19T16:03:33;100237.34;;;24.51;58.09
55759;BME280;41678;52.126;20.664;2023-06-19T16:08:52;100244.53;;;24.51;57.96
55759;BME280;41678;52.126;20.664;2023-06-19T16:14:16;100239.47;;;24.46;58.33
55759;BME280;41678;52.126;20.664;2023-06-19T16:19:36;100240.66;;;24.42;57.95
55759;BME280;41678;52.126;20.664;2023-06-19T16:24:55;100230.78;;;24.42;58.93
55759;BME280;41678;52.126;20.664;2023-06-19T16:30:33;100224.84;;;24.37;58.87
55759;BME280;41678;52.126;20.664;2023-06-19T16:41:59;100228.22;;;24.28;58.79
55759;BME280;41678;52.126;20.664;2023-06-19T16:47:19;100224.53;;;24.29;59.03
55759;BME280;41678;52.126;20.664;2023-06-19T16:52:39;100221.84;;;24.29;59.81
55759;BME280;41678;52.126;20.664;2023-06-19T16:57:58;100228.31;;;24.26;58.89
55759;BME280;41678;52.126;20.664;2023-06-19T17:03:20;100231.00;;;24.26;59.23
55759;BME280;41678;52.126;20.664;2023-06-19T17:08:39;100229.06;;;24.15;58.32
55759;BME280;41678;52.126;20.664;2023-06-19T17:13:59;100227.56;;;24.11;58.61
55759;BME280;41678;52.126;20.664;2023-06-19T17:19:18;100231.41;;;24.07;58.75
55759;BME280;41678;52.126;20.664;2023-06-19T17:24:37;100238.72;;;24.05;59.40
55759;BME280;41678;52.126;20.664;2023-06-19T17:29:59;100232.88;;;23.98;59.20
55759;BME280;41678;52.126;20.664;2023-06-19T17:35:20;100239.53;;;23.92;59.58
55759;BME280;41678;52.126;20.664;2023-06-19T17:40:40;100242.66;;;23.86;59.32
55759;BME280;41678;52.126;20.664;2023-06-19T17:46:00;100237.06;;;23.76;59.29
55759;BME280;41678;52.126;20.664;2023-06-19T17:51:20;100238.31;;;23.71;59.63
55759;BME280;41678;52.126;20.664;2023-06-19T17:56:40;100251.09;;;23.67;59.99
55759;BME280;41678;52.126;20.664;2023-06-19T18:01:59;100248.94;;;23.59;60.77
55759;BME280;41678;52.126;20.664;2023-06-19T18:07:19;100253.84;;;23.53;60.39
55759;BME280;41678;52.126;20.664;2023-06-19T18:12:38;100258.78;;;23.46;60.69
55759;BME280;41678;52.126;20.664;2023-06-19T18:17:58;100264.75;;;23.37;60.92
55759;BME280;41678;52.126;20.664;2023-06-19T18:23:17;100260.88;;;23.28;61.00
55759;BME280;41678;52.126;20.664;2023-06-19T18:28:37;100262.25;;;23.19;61.28
55759;BME280;41678;52.126;20.664;2023-06-19T18:33:57;100257.41;;;23.11;61.65
55759;BME280;41678;52.126;20.664;2023-06-19T18:39:16;100268.75;;;23.02;61.83
55759;BME280;41678;52.126;20.664;2023-06-19T18:44:36;100275.66;;;22.91;61.67
55759;BME280;41678;52.126;20.664;2023-06-19T18:49:56;100276.34;;;22.81;61.91
55759;BME280;41678;52.126;20.664;2023-06-19T18:55:16;100283.16;;;22.72;62.16
55759;BME280;41678;52.126;20.664;2023-06-19T19:00:36;100288.25;;;22.62;62.43
55759;BME280;41678;52.126;20.664;2023-06-19T19:05:59;100298.78;;;22.50;62.40
55759;BME280;41678;52.126;20.664;2023-06-19T19:11:19;100296.81;;;22.38;62.33
55759;BME280;41678;52.126;20.664;2023-06-19T19:16:38;100302.13;;;22.24;62.29
55759;BME280;41678;52.126;20.664;2023-06-19T19:21:58;100306.50;;;22.10;62.38
55759;BME280;41678;52.126;20.664;2023-06-19T19:27:17;100310.72;;;22.00;62.50
55759;BME280;41678;52.126;20.664;2023-06-19T19:32:40;100316.03;;;21.85;62.39
55759;BME280;41678;52.126;20.664;2023-06-19T19:37:59;100313.00;;;21.75;62.70
55759;BME280;41678;52.126;20.664;2023-06-19T19:43:19;100312.81;;;21.62;62.63
55759;BME280;41678;52.126;20.664;2023-06-19T19:48:39;100324.34;;;21.48;62.58
55759;BME280;41678;52.126;20.664;2023-06-19T19:54:16;100316.03;;;21.37;62.58
55759;BME280;41678;52.126;20.664;2023-06-19T20:04:56;100325.19;;;21.17;62.65
55759;BME280;41678;52.126;20.664;2023-06-19T20:10:15;100328.53;;;21.04;62.83
55759;BME280;41678;52.126;20.664;2023-06-19T20:15:36;100323.84;;;20.92;62.85
55759;BME280;41678;52.126;20.664;2023-06-19T20:20:57;100336.84;;;20.82;62.96
55759;BME280;41678;52.126;20.664;2023-06-19T20:26:17;100322.13;;;20.73;62.94
55759;BME280;41678;52.126;20.664;2023-06-19T20:31:36;100334.34;;;20.61;62.96
55759;BME280;41678;52.126;20.664;2023-06-19T20:36:56;100337.50;;;20.52;63.17
55759;BME280;41678;52.126;20.664;2023-06-19T20:42:16;100326.53;;;20.41;63.05
55759;BME280;41678;52.126;20.664;2023-06-19T20:47:37;100327.78;;;20.33;63.40
55759;BME280;41678;52.126;20.664;2023-06-19T20:52:56;100324.72;;;20.23;63.23
55759;BME280;41678;52.126;20.664;2023-06-19T20:58:15;100332.34;;;20.14;63.05
55759;BME280;41678;52.126;20.664;2023-06-19T21:03:35;100336.53;;;20.02;63.32
55759;BME280;41678;52.126;20.664;2023-06-19T21:08:55;100337.69;;;19.96;63.52
55759;BME280;41678;52.126;20.664;2023-06-19T21:14:15;100327.56;;;19.84;63.57
55759;BME280;41678;52.126;20.664;2023-06-19T21:19:34;100327.97;;;19.76;63.99
55759;BME280;41678;52.126;20.664;2023-06-19T21:24:54;100330.22;;;19.66;63.71
55759;BME280;41678;52.126;20.664;2023-06-19T21:30:13;100324.22;;;19.61;63.79
55759;BME280;41678;52.126;20.664;2023-06-19T21:35:33;100331.91;;;19.49;63.85
55759;BME280;41678;52.126;20.664;2023-06-19T21:40:53;100337.69;;;19.40;64.39
55759;BME280;41678;52.126;20.664;2023-06-19T21:52:10;100343.59;;;19.28;64.23
55759;BME280;41678;52.126;20.664;2023-06-19T21:57:30;100343.91;;;19.21;64.43
55759;BME280;41678;52.126;20.664;2023-06-19T22:02:49;100353.09;;;19.14;64.38
55759;BME280;41678;52.126;20.664;2023-06-19T22:08:09;100340.28;;;19.03;65.05
55759;BME280;41678;52.126;20.664;2023-06-19T22:13:30;100344.88;;;19.00;64.49
55759;BME280;41678;52.126;20.664;2023-06-19T22:18:51;100346.91;;;18.93;64.68
55759;BME280;41678;52.126;20.664;2023-06-19T22:24:10;100343.91;;;18.81;65.31
55759;BME280;41678;52.126;20.664;2023-06-19T22:29:30;100351.38;;;18.73;65.97
55759;BME280;41678;52.126;20.664;2023-06-19T22:34:50;100345.38;;;18.68;65.27
55759;BME280;41678;52.126;20.664;2023-06-19T22:40:09;100347.25;;;18.66;65.16
55759;BME280;41678;52.126;20.664;2023-06-19T22:45:29;100342.19;;;18.60;65.09
55759;BME280;41678;52.126;20.664;2023-06-19T22:50:49;100344.31;;;18.51;65.86
55759;BME280;41678;52.126;20.664;2023-06-19T22:56:08;100328.59;;;18.45;65.34
55759;BME280;41678;52.126;20.664;2023-06-19T23:01:28;100332.97;;;18.46;65.15
55759;BME280;41678;52.126;20.664;2023-06-19T23:06:49;100339.53;;;18.39;65.36
55759;BME280;41678;52.126;20.664;2023-06-19T23:12:10;100331.88;;;18.31;65.75
55759;BME280;41678;52.126;20.664;2023-06-19T23:17:30;100333.72;;;18.29;65.50
55759;BME280;41678;52.126;20.664;2023-06-19T23:22:49;100333.13;;;18.22;65.53
55759;BME280;41678;52.126;20.664;2023-06-19T23:28:08;100331.50;;;18.18;65.92
55759;BME280;41678;52.126;20.664;2023-06-19T23:33:42;100329.06;;;18.14;65.85
55759;BME280;41678;52.126;20.664;2023-06-19T23:39:02;100337.38;;;18.06;66.50
55759;BME280;41678;52.126;20.664;2023-06-19T23:44:22;100339.31;;;18.01;65.97
55759;BME280;41678;52.126;20.664;2023-06-19T23:49:42;100342.91;;;17.99;65.72
55759;BME280;41678;52.126;20.664;2023-06-19T23:55:02;100341.44;;;17.92;66.10
